sensor_id;sensor_type;location;lat;lon;timestamp;P1;durP1;ratioP1;P2;durP2;ratioP2
64653;SDS011;51065;48.884;12.598;2022-11-20T00:02:25;28.17;;;11.00;;
64653;SDS011;51065;48.884;12.598;2022-11-20T00:04:51;28.17;;;10.77;;
64653;SDS011;51065;48.884;12.598;2022-11-20T00:07:17;29.95;;;12.30;;
64653;SDS011;51065;48.884;12.598;2022-11-20T00:09:42;28.88;;;12.00;;
64653;SDS011;51065;48.884;12.598;2022-11-20T00:12:08;32.08;;;12.85;;
64653;SDS011;51065;48.884;12.598;2022-11-20T00:14:33;30.88;;;11.95;;
64653;SDS011;51065;48.884;12.598;2022-11-20T00:16:59;26.45;;;10.70;;
64653;SDS011;51065;48.884;12.598;2022-11-20T00:19:25;31.48;;;11.77;;
64653;SDS011;51065;48.884;12.598;2022-11-20T00:21:50;30.45;;;11.60;;
64653;SDS011;51065;48.884;12.598;2022-11-20T00:24:18;27.70;;;10.98;;
64653;SDS011;51065;48.884;12.598;2022-11-20T00:26:44;29.95;;;11.30;;
64653;SDS011;51065;48.884;12.598;2022-11-20T00:29:09;29.98;;;11.48;;
64653;SDS011;51065;48.884;12.598;2022-11-20T00:31:35;26.17;;;11.10;;
64653;SDS011;51065;48.884;12.598;2022-11-20T00:34:01;29.58;;;11.20;;
64653;SDS011;51065;48.884;12.598;2022-11-20T00:36:28;31.95;;;11.57;;
64653;SDS011;51065;48.884;12.598;2022-11-20T00:38:57;28.70;;;12.07;;
64653;SDS011;51065;48.884;12.598;2022-11-20T00:41:23;27.10;;;11.40;;
64653;SDS011;51065;48.884;12.598;2022-11-20T00:43:51;33.60;;;11.45;;
64653;SDS011;51065;48.884;12.598;2022-11-20T00:46:18;28.80;;;11.48;;
64653;SDS011;51065;48.884;12.598;2022-11-20T00:48:46;28.35;;;11.35;;
64653;SDS011;51065;48.884;12.598;2022-11-20T00:51:12;27.48;;;11.68;;
64653;SDS011;51065;48.884;12.598;2022-11-20T00:53:39;27.20;;;10.82;;
64653;SDS011;51065;48.884;12.598;2022-11-20T00:56:06;32.42;;;11.98;;
64653;SDS011;51065;48.884;12.598;2022-11-20T00:58:35;31.60;;;12.85;;
64653;SDS011;51065;48.884;12.598;2022-11-20T01:01:04;28.25;;;11.60;;
64653;SDS011;51065;48.884;12.598;2022-11-20T01:06:14;29.20;;;11.18;;
64653;SDS011;51065;48.884;12.598;2022-11-20T01:08:42;28.55;;;11.27;;
64653;SDS011;51065;48.884;12.598;2022-11-20T01:11:10;26.10;;;10.52;;
64653;SDS011;51065;48.884;12.598;2022-11-20T01:13:37;30.73;;;12.02;;
64653;SDS011;51065;48.884;12.598;2022-11-20T01:18:37;30.58;;;11.38;;
64653;SDS011;51065;48.884;12.598;2022-11-20T01:21:05;30.65;;;12.45;;
64653;SDS011;51065;48.884;12.598;2022-11-20T01:23:33;30.60;;;11.40;;
64653;SDS011;51065;48.884;12.598;2022-11-20T01:26:00;26.23;;;10.55;;
64653;SDS011;51065;48.884;12.598;2022-11-20T01:28:27;29.23;;;11.98;;
64653;SDS011;51065;48.884;12.598;2022-11-20T01:30:54;28.10;;;11.50;;
64653;SDS011;51065;48.884;12.598;2022-11-20T01:33:19;29.63;;;12.18;;
64653;SDS011;51065;48.884;12.598;2022-11-20T01:35:45;30.10;;;12.43;;
64653;SDS011;51065;48.884;12.598;2022-11-20T01:38:11;28.20;;;10.85;;
64653;SDS011;51065;48.884;12.598;2022-11-20T01:40:36;26.88;;;10.55;;
64653;SDS011;51065;48.884;12.598;2022-11-20T01:43:35;28.58;;;11.43;;
64653;SDS011;51065;48.884;12.598;2022-11-20T01:48:33;27.77;;;10.73;;
64653;SDS011;51065;48.884;12.598;2022-11-20T01:51:06;27.50;;;10.77;;
64653;SDS011;51065;48.884;12.598;2022-11-20T01:53:40;24.80;;;10.50;;
64653;SDS011;51065;48.884;12.598;2022-11-20T01:56:07;25.88;;;11.43;;
64653;SDS011;51065;48.884;12.598;2022-11-20T01:58:37;24.77;;;11.30;;
64653;SDS011;51065;48.884;12.598;2022-11-20T02:01:07;25.95;;;10.35;;
64653;SDS011;51065;48.884;12.598;2022-11-20T02:03:33;29.35;;;10.77;;
64653;SDS011;51065;48.884;12.598;2022-11-20T02:08:45;25.77;;;10.35;;
64653;SDS011;51065;48.884;12.598;2022-11-20T02:11:11;27.15;;;12.15;;
64653;SDS011;51065;48.884;12.598;2022-11-20T02:13:37;25.38;;;10.20;;
64653;SDS011;51065;48.884;12.598;2022-11-20T02:16:14;29.10;;;11.63;;
64653;SDS011;51065;48.884;12.598;2022-11-20T02:18:51;27.17;;;10.48;;
64653;SDS011;51065;48.884;12.598;2022-11-20T02:21:25;27.52;;;10.77;;
64653;SDS011;51065;48.884;12.598;2022-11-20T02:24:00;25.98;;;10.35;;
64653;SDS011;51065;48.884;12.598;2022-11-20T02:26:31;26.38;;;10.30;;
64653;SDS011;51065;48.884;12.598;2022-11-20T02:29:03;28.15;;;11.02;;
64653;SDS011;51065;48.884;12.598;2022-11-20T02:31:29;26.67;;;10.95;;
64653;SDS011;51065;48.884;12.598;2022-11-20T02:33:58;28.40;;;9.80;;
64653;SDS011;51065;48.884;12.598;2022-11-20T02:36:25;28.38;;;11.25;;
64653;SDS011;51065;48.884;12.598;2022-11-20T02:38:53;27.60;;;10.80;;
64653;SDS011;51065;48.884;12.598;2022-11-20T02:41:19;27.15;;;11.07;;
64653;SDS011;51065;48.884;12.598;2022-11-20T02:43:45;24.23;;;9.55;;
64653;SDS011;51065;48.884;12.598;2022-11-20T02:46:10;30.08;;;11.07;;
64653;SDS011;51065;48.884;12.598;2022-11-20T02:48:36;26.10;;;10.20;;
64653;SDS011;51065;48.884;12.598;2022-11-20T02:51:02;26.58;;;10.88;;
64653;SDS011;51065;48.884;12.598;2022-11-20T02:53:28;29.63;;;11.48;;
64653;SDS011;51065;48.884;12.598;2022-11-20T02:55:53;27.27;;;10.65;;
64653;SDS011;51065;48.884;12.598;2022-11-20T02:58:19;27.75;;;9.77;;
64653;SDS011;51065;48.884;12.598;2022-11-20T03:00:44;28.00;;;11.75;;
64653;SDS011;51065;48.884;12.598;2022-11-20T03:03:10;29.05;;;11.07;;
64653;SDS011;51065;48.884;12.598;2022-11-20T03:05:36;28.45;;;10.90;;
64653;SDS011;51065;48.884;12.598;2022-11-20T03:08:02;28.05;;;9.77;;
64653;SDS011;51065;48.884;12.598;2022-11-20T03:10:27;23.70;;;9.48;;
64653;SDS011;51065;48.884;12.598;2022-11-20T03:12:53;31.75;;;11.68;;
64653;SDS011;51065;48.884;12.598;2022-11-20T03:15:20;25.15;;;10.13;;
64653;SDS011;51065;48.884;12.598;2022-11-20T03:17:52;27.67;;;10.98;;
64653;SDS011;51065;48.884;12.598;2022-11-20T03:20:19;27.63;;;11.35;;
64653;SDS011;51065;48.884;12.598;2022-11-20T03:22:45;27.55;;;10.45;;
64653;SDS011;51065;48.884;12.598;2022-11-20T03:25:10;26.55;;;10.05;;
64653;SDS011;51065;48.884;12.598;2022-11-20T03:27:36;28.33;;;11.00;;
64653;SDS011;51065;48.884;12.598;2022-11-20T03:30:02;30.95;;;11.70;;
64653;SDS011;51065;48.884;12.598;2022-11-20T03:32:28;30.02;;;11.35;;
64653;SDS011;51065;48.884;12.598;2022-11-20T03:34:53;30.20;;;11.32;;
64653;SDS011;51065;48.884;12.598;2022-11-20T03:37:19;29.27;;;11.18;;
64653;SDS011;51065;48.884;12.598;2022-11-20T03:39:44;27.45;;;10.32;;
64653;SDS011;51065;48.884;12.598;2022-11-20T03:42:10;25.20;;;9.57;;
64653;SDS011;51065;48.884;12.598;2022-11-20T03:44:56;30.08;;;11.15;;
64653;SDS011;51065;48.884;12.598;2022-11-20T03:47:21;26.80;;;10.40;;
64653;SDS011;51065;48.884;12.598;2022-11-20T03:49:47;27.52;;;10.32;;
64653;SDS011;51065;48.884;12.598;2022-11-20T03:52:12;26.73;;;10.00;;
64653;SDS011;51065;48.884;12.598;2022-11-20T03:54:38;27.33;;;11.25;;
64653;SDS011;51065;48.884;12.598;2022-11-20T03:57:04;26.88;;;9.90;;
64653;SDS011;51065;48.884;12.598;2022-11-20T03:59:29;29.67;;;10.85;;
64653;SDS011;51065;48.884;12.598;2022-11-20T04:01:55;26.52;;;9.25;;
64653;SDS011;51065;48.884;12.598;2022-11-20T04:04:20;27.77;;;11.32;;
64653;SDS011;51065;48.884;12.598;2022-11-20T04:06:46;28.65;;;9.90;;
64653;SDS011;51065;48.884;12.598;2022-11-20T04:09:12;27.20;;;10.35;;
64653;SDS011;51065;48.884;12.598;2022-11-20T04:11:39;25.20;;;9.50;;
64653;SDS011;51065;48.884;12.598;2022-11-20T04:14:05;27.73;;;11.20;;
64653;SDS011;51065;48.884;12.598;2022-11-20T04:16:36;25.27;;;10.70;;
64653;SDS011;51065;48.884;12.598;2022-11-20T04:19:03;23.35;;;9.27;;
64653;SDS011;51065;48.884;12.598;2022-11-20T04:21:30;27.45;;;10.82;;
64653;SDS011;51065;48.884;12.598;2022-11-20T04:23:56;32.22;;;11.63;;
64653;SDS011;51065;48.884;12.598;2022-11-20T04:26:22;27.73;;;10.38;;
64653;SDS011;51065;48.884;12.598;2022-11-20T04:28:50;28.25;;;11.25;;
64653;SDS011;51065;48.884;12.598;2022-11-20T04:31:19;27.50;;;10.23;;
64653;SDS011;51065;48.884;12.598;2022-11-20T04:33:47;29.25;;;10.32;;
64653;SDS011;51065;48.884;12.598;2022-11-20T04:38:42;26.80;;;10.05;;
64653;SDS011;51065;48.884;12.598;2022-11-20T04:41:10;24.88;;;11.20;;
64653;SDS011;51065;48.884;12.598;2022-11-20T04:43:40;28.58;;;11.68;;
64653;SDS011;51065;48.884;12.598;2022-11-20T04:46:05;27.67;;;10.43;;
64653;SDS011;51065;48.884;12.598;2022-11-20T04:48:31;25.95;;;10.32;;
64653;SDS011;51065;48.884;12.598;2022-11-20T04:50:57;26.75;;;10.18;;
64653;SDS011;51065;48.884;12.598;2022-11-20T04:53:22;29.48;;;11.20;;
64653;SDS011;51065;48.884;12.598;2022-11-20T04:55:48;29.48;;;12.05;;
64653;SDS011;51065;48.884;12.598;2022-11-20T04:58:14;30.15;;;11.10;;
64653;SDS011;51065;48.884;12.598;2022-11-20T05:00:40;26.10;;;9.93;;
64653;SDS011;51065;48.884;12.598;2022-11-20T05:03:06;29.33;;;10.95;;
64653;SDS011;51065;48.884;12.598;2022-11-20T05:05:33;25.95;;;10.43;;
64653;SDS011;51065;48.884;12.598;2022-11-20T05:07:59;27.80;;;10.57;;
64653;SDS011;51065;48.884;12.598;2022-11-20T05:10:25;27.20;;;10.45;;
64653;SDS011;51065;48.884;12.598;2022-11-20T05:12:52;22.67;;;8.93;;
64653;SDS011;51065;48.884;12.598;2022-11-20T05:15:17;23.25;;;9.10;;
64653;SDS011;51065;48.884;12.598;2022-11-20T05:17:47;29.58;;;11.38;;
64653;SDS011;51065;48.884;12.598;2022-11-20T05:20:13;27.77;;;10.05;;
64653;SDS011;51065;48.884;12.598;2022-11-20T05:22:39;28.95;;;10.93;;
64653;SDS011;51065;48.884;12.598;2022-11-20T05:25:04;28.45;;;10.02;;
64653;SDS011;51065;48.884;12.598;2022-11-20T05:27:30;27.50;;;10.32;;
64653;SDS011;51065;48.884;12.598;2022-11-20T05:29:56;23.10;;;9.45;;
64653;SDS011;51065;48.884;12.598;2022-11-20T05:32:21;29.90;;;10.23;;
64653;SDS011;51065;48.884;12.598;2022-11-20T05:34:50;26.38;;;10.10;;
64653;SDS011;51065;48.884;12.598;2022-11-20T05:37:16;25.48;;;9.50;;
64653;SDS011;51065;48.884;12.598;2022-11-20T05:39:42;26.42;;;10.10;;
64653;SDS011;51065;48.884;12.598;2022-11-20T05:42:07;23.08;;;9.43;;
64653;SDS011;51065;48.884;12.598;2022-11-20T05:44:51;26.13;;;9.82;;
64653;SDS011;51065;48.884;12.598;2022-11-20T05:47:17;25.25;;;9.27;;
64653;SDS011;51065;48.884;12.598;2022-11-20T05:49:42;25.67;;;10.75;;
64653;SDS011;51065;48.884;12.598;2022-11-20T05:52:08;24.17;;;9.77;;
64653;SDS011;51065;48.884;12.598;2022-11-20T05:54:33;26.13;;;10.63;;
64653;SDS011;51065;48.884;12.598;2022-11-20T05:56:59;27.15;;;11.35;;
64653;SDS011;51065;48.884;12.598;2022-11-20T05:59:25;29.52;;;10.40;;
64653;SDS011;51065;48.884;12.598;2022-11-20T06:01:51;23.85;;;9.52;;
64653;SDS011;51065;48.884;12.598;2022-11-20T06:04:16;28.15;;;10.50;;
64653;SDS011;51065;48.884;12.598;2022-11-20T06:06:42;28.55;;;10.60;;
64653;SDS011;51065;48.884;12.598;2022-11-20T06:09:07;25.33;;;10.35;;
64653;SDS011;51065;48.884;12.598;2022-11-20T06:11:33;26.02;;;9.50;;
64653;SDS011;51065;48.884;12.598;2022-11-20T06:13:59;26.30;;;9.23;;
64653;SDS011;51065;48.884;12.598;2022-11-20T06:16:25;25.67;;;10.48;;
64653;SDS011;51065;48.884;12.598;2022-11-20T06:18:51;25.58;;;9.07;;
64653;SDS011;51065;48.884;12.598;2022-11-20T06:21:17;26.85;;;10.25;;
64653;SDS011;51065;48.884;12.598;2022-11-20T06:23:44;26.60;;;10.32;;
64653;SDS011;51065;48.884;12.598;2022-11-20T06:26:11;23.45;;;9.65;;
64653;SDS011;51065;48.884;12.598;2022-11-20T06:28:39;24.75;;;8.93;;
64653;SDS011;51065;48.884;12.598;2022-11-20T06:31:05;25.25;;;9.57;;
64653;SDS011;51065;48.884;12.598;2022-11-20T06:33:31;21.92;;;9.27;;
64653;SDS011;51065;48.884;12.598;2022-11-20T06:35:58;21.77;;;9.32;;
64653;SDS011;51065;48.884;12.598;2022-11-20T06:38:25;25.48;;;9.38;;
64653;SDS011;51065;48.884;12.598;2022-11-20T06:40:51;23.52;;;8.55;;
64653;SDS011;51065;48.884;12.598;2022-11-20T06:43:16;25.58;;;10.15;;
64653;SDS011;51065;48.884;12.598;2022-11-20T06:45:42;23.60;;;8.65;;
64653;SDS011;51065;48.884;12.598;2022-11-20T06:48:08;26.33;;;9.30;;
64653;SDS011;51065;48.884;12.598;2022-11-20T06:50:34;22.67;;;8.48;;
64653;SDS011;51065;48.884;12.598;2022-11-20T06:53:03;22.58;;;8.65;;
64653;SDS011;51065;48.884;12.598;2022-11-20T06:55:30;23.52;;;8.63;;
64653;SDS011;51065;48.884;12.598;2022-11-20T06:57:56;22.30;;;8.75;;
64653;SDS011;51065;48.884;12.598;2022-11-20T07:00:22;20.65;;;7.95;;
64653;SDS011;51065;48.884;12.598;2022-11-20T07:02:48;22.17;;;8.18;;
64653;SDS011;51065;48.884;12.598;2022-11-20T07:05:13;20.98;;;8.63;;
64653;SDS011;51065;48.884;12.598;2022-11-20T07:07:39;21.58;;;7.80;;
64653;SDS011;51065;48.884;12.598;2022-11-20T07:10:05;22.42;;;9.10;;
64653;SDS011;51065;48.884;12.598;2022-11-20T07:12:31;22.55;;;9.60;;
64653;SDS011;51065;48.884;12.598;2022-11-20T07:14:56;22.85;;;8.80;;
64653;SDS011;51065;48.884;12.598;2022-11-20T07:17:22;22.10;;;8.80;;
64653;SDS011;51065;48.884;12.598;2022-11-20T07:19:47;23.40;;;8.93;;
64653;SDS011;51065;48.884;12.598;2022-11-20T07:22:13;21.02;;;8.32;;
64653;SDS011;51065;48.884;12.598;2022-11-20T07:24:39;21.75;;;8.80;;
64653;SDS011;51065;48.884;12.598;2022-11-20T07:27:04;20.08;;;7.68;;
64653;SDS011;51065;48.884;12.598;2022-11-20T07:29:30;19.23;;;7.75;;
64653;SDS011;51065;48.884;12.598;2022-11-20T07:31:56;22.67;;;8.48;;
64653;SDS011;51065;48.884;12.598;2022-11-20T07:34:22;20.80;;;8.27;;
64653;SDS011;51065;48.884;12.598;2022-11-20T07:36:47;24.38;;;10.75;;
64653;SDS011;51065;48.884;12.598;2022-11-20T07:39:13;25.02;;;11.10;;
64653;SDS011;51065;48.884;12.598;2022-11-20T07:41:39;21.30;;;8.93;;
64653;SDS011;51065;48.884;12.598;2022-11-20T07:44:04;21.15;;;8.85;;
64653;SDS011;51065;48.884;12.598;2022-11-20T07:46:30;21.27;;;8.85;;
64653;SDS011;51065;48.884;12.598;2022-11-20T07:48:56;18.52;;;8.27;;
64653;SDS011;51065;48.884;12.598;2022-11-20T07:51:21;17.73;;;7.05;;
64653;SDS011;51065;48.884;12.598;2022-11-20T07:53:47;15.73;;;6.55;;
64653;SDS011;51065;48.884;12.598;2022-11-20T07:56:15;18.17;;;7.72;;
64653;SDS011;51065;48.884;12.598;2022-11-20T07:58:40;17.77;;;7.47;;
64653;SDS011;51065;48.884;12.598;2022-11-20T08:01:06;18.42;;;6.50;;
64653;SDS011;51065;48.884;12.598;2022-11-20T08:03:32;18.85;;;7.72;;
64653;SDS011;51065;48.884;12.598;2022-11-20T08:05:59;18.02;;;7.75;;
64653;SDS011;51065;48.884;12.598;2022-11-20T08:08:28;18.60;;;7.88;;
64653;SDS011;51065;48.884;12.598;2022-11-20T08:10:56;19.38;;;7.80;;
64653;SDS011;51065;48.884;12.598;2022-11-20T08:13:42;19.42;;;7.32;;
64653;SDS011;51065;48.884;12.598;2022-11-20T08:16:26;18.75;;;7.45;;
64653;SDS011;51065;48.884;12.598;2022-11-20T08:18:53;19.70;;;7.45;;
64653;SDS011;51065;48.884;12.598;2022-11-20T08:21:18;19.33;;;7.07;;
64653;SDS011;51065;48.884;12.598;2022-11-20T08:23:44;19.50;;;7.30;;
64653;SDS011;51065;48.884;12.598;2022-11-20T08:26:09;18.38;;;7.20;;
64653;SDS011;51065;48.884;12.598;2022-11-20T08:28:35;18.65;;;7.28;;
64653;SDS011;51065;48.884;12.598;2022-11-20T08:31:01;21.08;;;7.80;;
64653;SDS011;51065;48.884;12.598;2022-11-20T08:33:27;22.08;;;8.48;;
64653;SDS011;51065;48.884;12.598;2022-11-20T08:35:57;23.13;;;9.00;;
64653;SDS011;51065;48.884;12.598;2022-11-20T08:38:24;26.55;;;9.82;;
64653;SDS011;51065;48.884;12.598;2022-11-20T08:40:50;39.83;;;12.07;;
64653;SDS011;51065;48.884;12.598;2022-11-20T08:43:34;31.33;;;11.25;;
64653;SDS011;51065;48.884;12.598;2022-11-20T08:46:00;31.25;;;10.75;;
64653;SDS011;51065;48.884;12.598;2022-11-20T08:48:26;33.53;;;11.35;;
64653;SDS011;51065;48.884;12.598;2022-11-20T08:50:51;30.50;;;10.98;;
64653;SDS011;51065;48.884;12.598;2022-11-20T08:53:17;34.17;;;12.02;;
64653;SDS011;51065;48.884;12.598;2022-11-20T08:55:42;39.40;;;12.52;;
64653;SDS011;51065;48.884;12.598;2022-11-20T08:58:08;34.35;;;12.43;;
64653;SDS011;51065;48.884;12.598;2022-11-20T09:00:33;35.42;;;13.30;;
64653;SDS011;51065;48.884;12.598;2022-11-20T09:03:00;38.88;;;14.25;;
64653;SDS011;51065;48.884;12.598;2022-11-20T09:05:26;38.50;;;13.63;;
64653;SDS011;51065;48.884;12.598;2022-11-20T09:07:55;30.30;;;11.15;;
64653;SDS011;51065;48.884;12.598;2022-11-20T09:10:21;34.67;;;11.20;;
64653;SDS011;51065;48.884;12.598;2022-11-20T09:12:50;29.25;;;10.98;;
64653;SDS011;51065;48.884;12.598;2022-11-20T09:15:16;32.30;;;11.45;;
64653;SDS011;51065;48.884;12.598;2022-11-20T09:17:49;33.72;;;11.68;;
64653;SDS011;51065;48.884;12.598;2022-11-20T09:20:19;44.90;;;12.30;;
64653;SDS011;51065;48.884;12.598;2022-11-20T09:22:45;35.97;;;11.10;;
64653;SDS011;51065;48.884;12.598;2022-11-20T09:25:11;29.75;;;10.15;;
64653;SDS011;51065;48.884;12.598;2022-11-20T09:27:36;32.05;;;12.40;;
64653;SDS011;51065;48.884;12.598;2022-11-20T09:30:02;31.38;;;11.18;;
64653;SDS011;51065;48.884;12.598;2022-11-20T09:32:28;24.90;;;10.43;;
64653;SDS011;51065;48.884;12.598;2022-11-20T09:34:54;24.58;;;10.32;;
64653;SDS011;51065;48.884;12.598;2022-11-20T09:37:19;21.90;;;8.70;;
64653;SDS011;51065;48.884;12.598;2022-11-20T09:39:45;19.85;;;8.77;;
64653;SDS011;51065;48.884;12.598;2022-11-20T09:42:14;21.02;;;8.88;;
64653;SDS011;51065;48.884;12.598;2022-11-20T09:48:04;17.52;;;7.65;;
64653;SDS011;51065;48.884;12.598;2022-11-20T09:50:46;21.83;;;7.78;;
64653;SDS011;51065;48.884;12.598;2022-11-20T09:56:11;17.15;;;7.28;;
64653;SDS011;51065;48.884;12.598;2022-11-20T09:58:39;17.48;;;7.07;;
64653;SDS011;51065;48.884;12.598;2022-11-20T10:01:17;17.00;;;6.47;;
64653;SDS011;51065;48.884;12.598;2022-11-20T10:03:47;18.92;;;7.78;;
64653;SDS011;51065;48.884;12.598;2022-11-20T10:06:24;21.27;;;9.32;;
64653;SDS011;51065;48.884;12.598;2022-11-20T10:08:59;23.45;;;10.18;;
64653;SDS011;51065;48.884;12.598;2022-11-20T10:11:43;24.65;;;11.80;;
64653;SDS011;51065;48.884;12.598;2022-11-20T10:19:58;14.98;;;6.22;;
64653;SDS011;51065;48.884;12.598;2022-11-20T10:25:10;14.95;;;5.97;;
64653;SDS011;51065;48.884;12.598;2022-11-20T10:30:42;18.50;;;7.68;;
64653;SDS011;51065;48.884;12.598;2022-11-20T10:33:22;23.42;;;12.95;;
64653;SDS011;51065;48.884;12.598;2022-11-20T10:35:50;25.67;;;14.67;;
64653;SDS011;51065;48.884;12.598;2022-11-20T10:38:39;15.30;;;6.47;;
64653;SDS011;51065;48.884;12.598;2022-11-20T10:41:12;17.40;;;7.05;;
64653;SDS011;51065;48.884;12.598;2022-11-20T10:44:09;16.38;;;7.68;;
64653;SDS011;51065;48.884;12.598;2022-11-20T10:47:17;14.25;;;5.53;;
64653;SDS011;51065;48.884;12.598;2022-11-20T10:49:48;14.75;;;5.95;;
64653;SDS011;51065;48.884;12.598;2022-11-20T10:57:23;14.63;;;5.85;;
64653;SDS011;51065;48.884;12.598;2022-11-20T11:02:52;16.20;;;7.03;;
64653;SDS011;51065;48.884;12.598;2022-11-20T11:07:45;15.52;;;6.88;;
64653;SDS011;51065;48.884;12.598;2022-11-20T11:10:36;16.00;;;6.78;;
64653;SDS011;51065;48.884;12.598;2022-11-20T11:13:18;16.48;;;7.13;;
64653;SDS011;51065;48.884;12.598;2022-11-20T11:15:49;15.27;;;6.85;;
64653;SDS011;51065;48.884;12.598;2022-11-20T11:18:28;16.00;;;7.40;;
64653;SDS011;51065;48.884;12.598;2022-11-20T11:20:56;17.50;;;7.55;;
64653;SDS011;51065;48.884;12.598;2022-11-20T11:23:28;16.05;;;7.15;;
64653;SDS011;51065;48.884;12.598;2022-11-20T11:25:58;19.13;;;8.27;;
64653;SDS011;51065;48.884;12.598;2022-11-20T11:28:25;15.85;;;7.25;;
64653;SDS011;51065;48.884;12.598;2022-11-20T11:30:52;14.68;;;6.75;;
64653;SDS011;51065;48.884;12.598;2022-11-20T11:33:29;15.55;;;7.32;;
64653;SDS011;51065;48.884;12.598;2022-11-20T11:36:02;17.85;;;7.95;;
64653;SDS011;51065;48.884;12.598;2022-11-20T11:38:36;16.45;;;6.53;;
64653;SDS011;51065;48.884;12.598;2022-11-20T11:41:09;17.13;;;7.03;;
64653;SDS011;51065;48.884;12.598;2022-11-20T11:43:48;17.08;;;7.22;;
64653;SDS011;51065;48.884;12.598;2022-11-20T11:46:38;18.70;;;7.70;;
64653;SDS011;51065;48.884;12.598;2022-11-20T11:51:36;18.25;;;8.50;;
64653;SDS011;51065;48.884;12.598;2022-11-20T11:54:11;19.95;;;8.38;;
64653;SDS011;51065;48.884;12.598;2022-11-20T11:56:42;17.73;;;8.55;;
64653;SDS011;51065;48.884;12.598;2022-11-20T11:59:09;19.00;;;8.57;;
64653;SDS011;51065;48.884;12.598;2022-11-20T12:02:46;18.40;;;9.15;;
64653;SDS011;51065;48.884;12.598;2022-11-20T12:04:57;18.33;;;7.88;;
64653;SDS011;51065;48.884;12.598;2022-11-20T12:10:57;21.48;;;9.73;;
64653;SDS011;51065;48.884;12.598;2022-11-20T12:13:20;17.80;;;7.35;;
64653;SDS011;51065;48.884;12.598;2022-11-20T12:15:59;15.88;;;6.75;;
64653;SDS011;51065;48.884;12.598;2022-11-20T12:18:26;15.63;;;6.90;;
64653;SDS011;51065;48.884;12.598;2022-11-20T12:21:17;14.50;;;6.72;;
64653;SDS011;51065;48.884;12.598;2022-11-20T12:26:50;15.93;;;7.32;;
64653;SDS011;51065;48.884;12.598;2022-11-20T12:29:48;15.18;;;6.80;;
64653;SDS011;51065;48.884;12.598;2022-11-20T12:47:17;20.27;;;10.05;;
64653;SDS011;51065;48.884;12.598;2022-11-20T12:52:30;18.75;;;8.95;;
64653;SDS011;51065;48.884;12.598;2022-11-20T13:00:23;6.80;;;2.97;;
64653;SDS011;51065;48.884;12.598;2022-11-20T13:08:33;4.55;;;2.17;;
64653;SDS011;51065;48.884;12.598;2022-11-20T13:16:17;4.20;;;2.00;;
64653;SDS011;51065;48.884;12.598;2022-11-20T13:18:52;7.15;;;2.35;;
64653;SDS011;51065;48.884;12.598;2022-11-20T13:21:19;5.60;;;2.25;;
64653;SDS011;51065;48.884;12.598;2022-11-20T13:23:47;7.10;;;2.47;;
64653;SDS011;51065;48.884;12.598;2022-11-20T13:28:42;3.57;;;1.80;;
64653;SDS011;51065;48.884;12.598;2022-11-20T13:31:21;2.63;;;1.73;;
64653;SDS011;51065;48.884;12.598;2022-11-20T13:33:57;4.03;;;1.85;;
64653;SDS011;51065;48.884;12.598;2022-11-20T13:36:25;5.93;;;2.45;;
64653;SDS011;51065;48.884;12.598;2022-11-20T13:38:54;5.00;;;1.95;;
64653;SDS011;51065;48.884;12.598;2022-11-20T13:41:34;4.55;;;1.95;;
64653;SDS011;51065;48.884;12.598;2022-11-20T13:46:41;3.80;;;2.15;;
64653;SDS011;51065;48.884;12.598;2022-11-20T13:49:10;3.85;;;2.08;;
64653;SDS011;51065;48.884;12.598;2022-11-20T13:51:46;3.70;;;1.75;;
64653;SDS011;51065;48.884;12.598;2022-11-20T13:59:57;5.65;;;2.30;;
64653;SDS011;51065;48.884;12.598;2022-11-20T14:02:29;3.53;;;1.83;;
64653;SDS011;51065;48.884;12.598;2022-11-20T14:04:56;6.22;;;2.35;;
64653;SDS011;51065;48.884;12.598;2022-11-20T14:07:26;3.50;;;1.70;;
64653;SDS011;51065;48.884;12.598;2022-11-20T14:09:59;3.55;;;1.52;;
64653;SDS011;51065;48.884;12.598;2022-11-20T14:12:29;3.17;;;1.40;;
64653;SDS011;51065;48.884;12.598;2022-11-20T14:14:56;6.45;;;1.92;;
64653;SDS011;51065;48.884;12.598;2022-11-20T14:17:24;4.32;;;2.13;;
64653;SDS011;51065;48.884;12.598;2022-11-20T14:19:58;3.22;;;2.10;;
64653;SDS011;51065;48.884;12.598;2022-11-20T14:22:27;5.85;;;2.15;;
64653;SDS011;51065;48.884;12.598;2022-11-20T14:27:52;2.35;;;1.80;;
64653;SDS011;51065;48.884;12.598;2022-11-20T14:30:24;3.65;;;1.77;;
64653;SDS011;51065;48.884;12.598;2022-11-20T14:32:53;4.13;;;2.17;;
64653;SDS011;51065;48.884;12.598;2022-11-20T14:38:00;8.38;;;2.97;;
64653;SDS011;51065;48.884;12.598;2022-11-20T14:40:28;6.28;;;2.40;;
64653;SDS011;51065;48.884;12.598;2022-11-20T14:45:52;11.30;;;3.45;;
64653;SDS011;51065;48.884;12.598;2022-11-20T14:48:21;6.75;;;2.85;;
64653;SDS011;51065;48.884;12.598;2022-11-20T14:50:53;9.60;;;2.83;;
64653;SDS011;51065;48.884;12.598;2022-11-20T14:53:22;8.07;;;3.05;;
64653;SDS011;51065;48.884;12.598;2022-11-20T14:55:54;7.88;;;2.90;;
64653;SDS011;51065;48.884;12.598;2022-11-20T14:58:25;12.77;;;3.90;;
64653;SDS011;51065;48.884;12.598;2022-11-20T15:01:03;9.40;;;3.47;;
64653;SDS011;51065;48.884;12.598;2022-11-20T15:03:34;10.68;;;3.60;;
64653;SDS011;51065;48.884;12.598;2022-11-20T15:06:01;8.30;;;2.92;;
64653;SDS011;51065;48.884;12.598;2022-11-20T15:08:27;6.53;;;2.50;;
64653;SDS011;51065;48.884;12.598;2022-11-20T15:10:53;4.90;;;2.15;;
64653;SDS011;51065;48.884;12.598;2022-11-20T15:13:29;5.32;;;2.30;;
64653;SDS011;51065;48.884;12.598;2022-11-20T15:15:58;5.35;;;2.45;;
64653;SDS011;51065;48.884;12.598;2022-11-20T15:18:47;4.65;;;2.03;;
64653;SDS011;51065;48.884;12.598;2022-11-20T15:21:12;6.78;;;2.60;;
64653;SDS011;51065;48.884;12.598;2022-11-20T15:23:40;7.43;;;2.95;;
64653;SDS011;51065;48.884;12.598;2022-11-20T15:26:06;5.38;;;2.50;;
64653;SDS011;51065;48.884;12.598;2022-11-20T15:28:39;6.05;;;2.20;;
64653;SDS011;51065;48.884;12.598;2022-11-20T15:31:06;5.30;;;1.98;;
64653;SDS011;51065;48.884;12.598;2022-11-20T15:33:36;7.38;;;2.95;;
64653;SDS011;51065;48.884;12.598;2022-11-20T15:36:01;4.82;;;2.40;;
64653;SDS011;51065;48.884;12.598;2022-11-20T15:38:27;5.68;;;2.10;;
64653;SDS011;51065;48.884;12.598;2022-11-20T15:40:53;6.93;;;2.50;;
64653;SDS011;51065;48.884;12.598;2022-11-20T15:43:19;5.78;;;2.10;;
64653;SDS011;51065;48.884;12.598;2022-11-20T15:45:54;5.38;;;1.77;;
64653;SDS011;51065;48.884;12.598;2022-11-20T15:48:21;4.47;;;1.80;;
64653;SDS011;51065;48.884;12.598;2022-11-20T15:53:16;4.05;;;2.00;;
64653;SDS011;51065;48.884;12.598;2022-11-20T15:55:42;4.13;;;1.73;;
64653;SDS011;51065;48.884;12.598;2022-11-20T15:58:08;5.57;;;2.08;;
64653;SDS011;51065;48.884;12.598;2022-11-20T16:00:33;7.18;;;2.10;;
64653;SDS011;51065;48.884;12.598;2022-11-20T16:02:59;4.63;;;1.65;;
64653;SDS011;51065;48.884;12.598;2022-11-20T16:05:27;4.35;;;2.03;;
64653;SDS011;51065;48.884;12.598;2022-11-20T16:07:54;4.10;;;1.98;;
64653;SDS011;51065;48.884;12.598;2022-11-20T16:10:19;4.72;;;2.13;;
64653;SDS011;51065;48.884;12.598;2022-11-20T16:12:45;4.13;;;2.03;;
64653;SDS011;51065;48.884;12.598;2022-11-20T16:15:29;4.03;;;2.10;;